Time;durP1;ratioP1;P1;durP2;ratioP2;P2;SDS_P1;SDS_P2;PMS_P1;PMS_P2;Temp;Humidity;BMP_temperature;BMP_pressure;BME280_temperature;BME280_humidity;BME280_pressure;Samples;Min_cycle;Max_cycle;Signal;HPM_P1;HPM_P2
2022/12/03 00:04:48;;;;;;;36.17;17.90;;;;;;;2.54;100.00;102533.09;10603061;27;20084;-74
2022/12/03 00:09:48;;;;;;;29.73;15.27;;;;;;;2.46;100.00;102528.47;10621067;27;20118;-74
2022/12/03 00:14:48;;;;;;;33.25;16.73;;;;;;;2.56;100.00;102542.81;10622662;27;20051;-74
2022/12/03 00:19:49;;;;;;;28.90;15.40;;;;;;;2.59;100.00;102537.03;10586265;27;20092;-74
2022/12/03 00:24:49;;;;;;;28.27;14.87;;;;;;;2.58;100.00;102527.19;10588649;27;20405;-74
2022/12/03 00:29:50;;;;;;;24.53;13.20;;;;;;;2.59;100.00;102518.00;10570092;27;20105;-74
2022/12/03 00:34:50;;;;;;;28.70;16.27;;;;;;;2.61;100.00;102513.25;10568703;27;20035;-73
2022/12/03 00:39:51;;;;;;;27.70;14.70;;;;;;;2.66;100.00;102522.81;10586142;28;20051;-73
2022/12/03 00:44:51;;;;;;;31.33;15.82;;;;;;;2.65;100.00;102515.63;10589017;27;20039;-74
2022/12/03 00:49:52;;;;;;;29.48;15.48;;;;;;;2.65;100.00;102515.63;10588877;27;20036;-73
2022/12/03 00:54:52;;;;;;;28.50;14.67;;;;;;;2.70;100.00;102507.88;10586583;27;20051;-75
2022/12/03 00:59:53;;;;;;;28.05;16.40;;;;;;;2.75;100.00;102510.94;10569113;28;20047;-74
2022/12/03 01:04:53;;;;;;;27.90;15.05;;;;;;;2.75;100.00;102505.50;10568732;27;20040;-73
2022/12/03 01:09:54;;;;;;;29.27;16.02;;;;;;;2.69;100.00;102500.69;10542656;28;20044;-73
2022/12/03 01:14:54;;;;;;;27.23;15.15;;;;;;;2.69;100.00;102506.13;10544092;28;20040;-73
2022/12/03 01:19:55;;;;;;;26.52;14.15;;;;;;;2.62;100.00;102501.38;10543841;28;20032;-73
2022/12/03 01:24:55;;;;;;;23.77;13.27;;;;;;;2.53;100.00;102501.50;10545085;28;20117;-73
2022/12/03 01:29:55;;;;;;;25.00;14.83;;;;;;;2.42;100.00;102494.47;10547952;28;20039;-73
2022/12/03 01:34:56;;;;;;;24.17;13.13;;;;;;;2.40;100.00;102493.78;10567694;27;20039;-73
2022/12/03 01:39:56;;;;;;;23.25;13.57;;;;;;;2.33;100.00;102489.97;10567967;28;20043;-74
2022/12/03 01:44:57;;;;;;;27.00;15.23;;;;;;;2.42;100.00;102499.91;10543961;28;20040;-73
2022/12/03 01:50:06;;;;;;;23.63;13.48;;;;;;;2.44;100.00;102500.59;10558944;28;20043;-73
2022/12/03 01:55:11;;;;;;;26.33;14.63;;;;;;;2.42;100.00;102499.91;10558463;28;20108;-73
2022/12/03 02:00:17;;;;;;;30.83;15.83;;;;;;;2.41;100.00;102503.63;10524866;28;20036;-73
2022/12/03 02:05:19;;;;;;;23.90;13.98;;;;;;;2.46;100.00;102512.16;10576709;27;20077;-73
2022/12/03 02:10:29;;;;;;;27.07;14.03;;;;;;;2.39;100.00;102501.06;10583850;27;20031;-74
2022/12/03 02:15:29;;;;;;;25.67;14.53;;;;;;;2.48;100.00;102501.97;10567475;27;20040;-74
2022/12/03 02:20:30;;;;;;;26.55;14.52;;;;;;;2.40;100.00;102491.06;10565893;27;20040;-74
2022/12/03 02:25:32;;;;;;;24.92;13.90;;;;;;;2.39;100.00;102478.47;10565870;27;20040;-74
2022/12/03 02:30:32;;;;;;;23.75;13.90;;;;;;;2.42;100.00;102491.75;10564504;27;20039;-73
2022/12/03 02:35:33;;;;;;;24.48;12.70;;;;;;;2.47;100.00;102491.25;10566206;27;20032;-74
2022/12/03 02:40:34;;;;;;;29.70;16.42;;;;;;;2.55;100.00;102499.47;10578555;28;20036;-74
2022/12/03 02:45:39;;;;;;;26.92;14.40;;;;;;;2.48;100.00;102492.94;10565269;27;20047;-74
2022/12/03 02:50:41;;;;;;;26.33;15.18;;;;;;;2.40;100.00;102477.47;10564794;27;20133;-74
2022/12/03 02:55:41;;;;;;;25.03;13.47;;;;;;;2.45;100.00;102488.69;10564573;27;20046;-73
2022/12/03 03:00:42;;;;;;;26.70;13.98;;;;;;;2.41;100.00;102476.44;10564392;27;20031;-74
2022/12/03 03:05:42;;;;;;;26.07;15.00;;;;;;;2.38;100.00;102471.34;10581265;27;20027;-74
2022/12/03 03:10:43;;;;;;;28.05;13.98;;;;;;;2.45;100.00;102477.81;10580383;27;20039;-73
2022/12/03 03:15:43;;;;;;;25.97;14.10;;;;;;;2.46;100.00;102479.53;10580225;27;20039;-74
2022/12/03 03:20:44;;;;;;;28.75;14.85;;;;;;;2.41;100.00;102468.28;10581339;28;20031;-76
2022/12/03 03:26:09;;;;;;;29.23;14.60;;;;;;;2.45;100.00;102483.25;10561267;27;20162;-74
2022/12/03 03:31:10;;;;;;;25.63;14.45;;;;;;;2.42;100.00;102489.88;10558170;28;20054;-73
2022/12/03 03:36:11;;;;;;;25.23;15.50;;;;;;;2.41;100.00;102481.88;10521433;28;20450;-73
2022/12/03 03:41:11;;;;;;;25.13;13.23;;;;;;;2.26;100.00;102453.59;10555990;28;20036;-74
2022/12/03 03:46:12;;;;;;;28.35;15.15;;;;;;;2.34;100.00;102476.22;10584805;27;20153;-74
2022/12/03 03:51:12;;;;;;;29.23;14.13;;;;;;;2.30;100.00;102469.41;10580394;28;20124;-74
2022/12/03 03:56:13;;;;;;;24.40;13.73;;;;;;;2.41;100.00;102482.72;10555161;27;20510;-73
2022/12/03 04:01:14;;;;;;;23.73;13.88;;;;;;;2.34;100.00;102475.38;10588859;27;20047;-75
2022/12/03 04:06:15;;;;;;;26.33;14.13;;;;;;;2.32;100.00;102474.69;10560104;27;20039;-74
2022/12/03 04:16:34;;;;;;;26.13;14.30;;;;;;;2.39;100.00;102482.03;10545616;28;20039;-74
2022/12/03 04:37:31;;;;;;;25.95;14.02;;;;;;;2.41;100.00;102476.44;10547009;28;20115;-73
2022/12/03 04:42:32;;;;;;;23.35;13.23;;;;;;;2.38;100.00;102471.34;10563068;28;20042;-74
2022/12/03 04:47:32;;;;;;;25.52;13.30;;;;;;;2.36;100.00;102471.50;10586768;27;20395;-74
2022/12/03 04:52:33;;;;;;;27.58;14.82;;;;;;;2.30;100.00;102457.69;10587189;27;20510;-73
2022/12/03 04:57:33;;;;;;;25.83;14.90;;;;;;;2.21;100.00;102446.78;10569610;28;20484;-74
2022/12/03 05:02:33;;;;;;;29.60;14.88;;;;;;;2.25;100.00;102449.16;10585671;27;20096;-74
2022/12/03 05:07:34;;;;;;;28.17;14.07;;;;;;;2.31;100.00;102462.09;10586745;27;20035;-74
2022/12/03 05:12:34;;;;;;;24.85;13.45;;;;;;;2.22;100.00;102440.31;10585612;27;20036;-74
2022/12/03 05:17:35;;;;;;;30.70;15.20;;;;;;;2.14;100.00;102442.97;10569439;28;20051;-73
2022/12/03 05:22:35;;;;;;;30.27;14.93;;;;;;;2.16;100.00;102443.66;10568984;28;20489;-74
2022/12/03 05:27:36;;;;;;;27.38;14.93;;;;;;;2.13;100.00;102457.59;10568865;27;20122;-74
2022/12/03 05:32:37;;;;;;;27.52;15.40;;;;;;;2.04;100.00;102452.25;10586198;27;20036;-74
2022/12/03 05:37:37;;;;;;;27.40;15.35;;;;;;;2.04;100.00;102446.81;10584425;27;20468;-74
2022/12/03 05:42:53;;;;;;;31.80;15.87;;;;;;;1.98;100.00;102449.16;10565730;27;20039;-74
2022/12/03 05:47:54;;;;;;;26.37;13.67;;;;;;;1.99;100.00;102448.16;10570032;27;20058;-74
2022/12/03 05:52:54;;;;;;;32.60;15.73;;;;;;;1.90;100.00;102434.66;10550757;27;20151;-73
2022/12/03 05:57:55;;;;;;;27.77;14.23;;;;;;;1.94;100.00;102446.91;10584481;27;20487;-73
2022/12/03 06:02:55;;;;;;;27.40;13.27;;;;;;;1.93;100.00;102448.78;10559391;28;20044;-74
2022/12/03 06:07:56;;;;;;;27.00;14.50;;;;;;;1.91;100.00;102444.53;10543435;28;20408;-74
2022/12/03 06:12:56;;;;;;;28.70;13.37;;;;;;;1.86;100.00;102436.88;10585001;27;20039;-75
2022/12/03 06:17:57;;;;;;;27.33;14.73;;;;;;;1.89;100.00;102432.97;10584210;27;20038;-72
2022/12/03 06:22:57;;;;;;;26.65;14.85;;;;;;;1.86;100.00;102430.56;10584821;27;20036;-74
2022/12/03 06:27:58;;;;;;;26.03;13.50;;;;;;;1.86;100.00;102434.16;10584720;27;20047;-71
2022/12/03 06:32:58;;;;;;;34.30;15.13;;;;;;;1.79;100.00;102427.63;10582444;27;20120;-74
2022/12/03 06:37:59;;;;;;;29.10;12.82;;;;;;;1.75;100.00;102421.66;10581974;27;20028;-75
2022/12/03 06:42:59;;;;;;;29.23;13.57;;;;;;;1.70;100.00;102421.28;10580382;27;20057;-73
2022/12/03 06:48:00;;;;;;;25.83;13.65;;;;;;;1.71;100.00;102431.13;10582158;27;20046;-74
2022/12/03 06:53:00;;;;;;;29.20;14.55;;;;;;;1.70;100.00;102428.59;10582268;27;20036;-74
2022/12/03 06:58:00;;;;;;;25.00;13.97;;;;;;;1.65;100.00;102431.75;10584032;27;20378;-74
2022/12/03 07:03:01;;;;;;;30.27;15.57;;;;;;;1.60;100.00;102428.66;10582697;27;20038;-75
2022/12/03 07:08:01;;;;;;;30.67;14.80;;;;;;;1.44;100.00;102406.81;10562610;27;20042;-74
2022/12/03 07:13:03;;;;;;;28.47;15.80;;;;;;;1.56;100.00;102419.13;10582357;27;20059;-74
2022/12/03 07:18:03;;;;;;;29.42;15.23;;;;;;;1.51;100.00;102418.75;10581005;27;20035;-71
2022/12/03 07:23:04;;;;;;;31.77;14.82;;;;;;;1.55;100.00;102442.72;10564567;28;20490;-74
2022/12/03 07:28:04;;;;;;;25.77;14.83;;;;;;;1.48;100.00;102416.34;10580837;27;20039;-74
2022/12/03 07:33:05;;;;;;;32.70;15.43;;;;;;;1.54;100.00;102430.16;10579884;27;20061;-72
2022/12/03 07:38:05;;;;;;;30.80;16.20;;;;;;;1.59;100.00;102437.81;10580624;28;20039;-74
2022/12/03 07:43:06;;;;;;;34.53;14.93;;;;;;;1.51;100.00;102451.31;10581778;28;20039;-73
2022/12/03 07:48:06;;;;;;;31.10;15.67;;;;;;;1.37;100.00;102423.72;10563959;28;20065;-73
2022/12/03 07:53:06;;;;;;;33.70;16.33;;;;;;;1.39;100.00;102438.00;10580081;28;20043;-74
2022/12/03 07:58:08;;;;;;;33.87;14.97;;;;;;;1.32;100.00;102431.47;10563652;28;20043;-73
2022/12/03 08:03:08;;;;;;;28.65;15.60;;;;;;;1.24;100.00;102416.97;10545393;27;20031;-74
2022/12/03 08:08:09;;;;;;;30.08;15.57;;;;;;;1.30;100.00;102422.66;10578564;28;20038;-72
2022/12/03 08:13:11;;;;;;;33.70;15.90;;;;;;;1.36;100.00;102435.56;10581372;28;20039;-74
2022/12/03 08:18:13;;;;;;;34.45;15.77;;;;;;;1.37;100.00;102440.00;10563429;28;20024;-73
2022/12/03 08:23:18;;;;;;;31.57;15.67;;;;;;;1.12;100.00;102408.22;10581728;28;20040;-75
2022/12/03 08:28:22;;;;;;;31.73;15.98;;;;;;;1.29;100.00;102429.06;10579623;28;20086;-74
2022/12/03 08:33:23;;;;;;;30.07;14.90;;;;;;;1.32;100.00;102427.91;10578168;28;20048;-75
2022/12/03 08:38:23;;;;;;;34.47;16.65;;;;;;;1.20;100.00;102425.44;10582128;27;20031;-74
2022/12/03 08:43:25;;;;;;;29.57;16.07;;;;;;;1.20;100.00;102413.72;10568391;27;20663;-74
2022/12/03 08:48:25;;;;;;;33.27;15.37;;;;;;;1.35;100.00;102428.44;10582365;27;20042;-73
2022/12/03 08:54:06;;;;;;;32.47;16.27;;;;;;;1.33;100.00;102424.19;10548504;28;20056;-73
2022/12/03 08:59:17;;;;;;;34.67;17.42;;;;;;;1.37;100.00;102431.88;10431120;28;20024;-73
2022/12/03 09:04:37;;;;;;;32.27;16.30;;;;;;;1.41;100.00;102421.56;10567674;27;20036;-74
2022/12/03 09:09:38;;;;;;;36.58;17.52;;;;;;;1.37;100.00;102423.72;10607634;27;20063;-74
2022/12/03 09:14:38;;;;;;;33.33;15.63;;;;;;;1.39;100.00;102427.13;10586852;27;20044;-74
2022/12/03 09:19:43;;;;;;;34.95;16.98;;;;;;;1.36;100.00;102411.16;10586233;27;20032;-74
2022/12/03 09:24:44;;;;;;;36.10;15.80;;;;;;;1.25;100.00;102386.97;10559373;27;20036;-74
2022/12/03 09:29:44;;;;;;;37.23;17.93;;;;;;;1.38;100.00;102402.84;10561558;27;20043;-77
2022/12/03 09:34:45;;;;;;;36.67;16.98;;;;;;;1.46;100.00;102408.34;10558818;28;20044;-74
2022/12/03 09:39:45;;;;;;;34.58;16.83;;;;;;;1.52;100.00;102409.59;10560248;27;20712;-75
2022/12/03 09:44:46;;;;;;;38.17;18.10;;;;;;;1.59;100.00;102406.13;10554418;27;20035;-74
2022/12/03 09:49:49;;;;;;;38.45;18.10;;;;;;;1.54;100.00;102404.88;10546920;28;20036;-75
2022/12/03 09:54:49;;;;;;;35.43;17.17;;;;;;;1.54;100.00;102404.88;10557966;27;20040;-75
2022/12/03 09:59:50;;;;;;;36.45;18.90;;;;;;;1.66;100.00;102403.59;10543185;28;20396;-74
2022/12/03 10:04:51;;;;;;;33.33;17.33;;;;;;;1.64;100.00;102397.47;10575934;27;20032;-75
2022/12/03 10:09:52;;;;;;;36.47;16.97;;;;;;;1.68;100.00;102385.31;10560519;28;20039;-75
2022/12/03 10:14:52;;;;;;;41.35;18.73;;;;;;;1.60;100.00;102385.25;10541019;28;20425;-74
2022/12/03 10:19:53;;;;;;;33.70;17.53;;;;;;;1.70;100.00;102391.44;10559194;27;20032;-74
2022/12/03 10:25:11;;;;;;;33.63;15.57;;;;;;;1.86;100.00;102392.53;10562038;27;20127;-75
2022/12/03 10:30:18;;;;;;;35.78;17.15;;;;;;;1.80;100.00;102392.19;10538077;28;20091;-75
2022/12/03 10:35:23;;;;;;;32.13;16.33;;;;;;;1.76;100.00;102373.66;10529126;27;20415;-75
2022/12/03 10:40:25;;;;;;;37.00;18.30;;;;;;;1.89;100.00;102384.09;10581400;27;20047;-76
2022/12/03 10:45:26;;;;;;;38.05;17.45;;;;;;;1.89;100.00;102370.50;10582907;27;20024;-75
2022/12/03 10:50:26;;;;;;;33.50;16.43;;;;;;;1.88;100.00;102341.63;10581686;28;20552;-75
2022/12/03 10:55:35;;;;;;;35.15;17.63;;;;;;;1.95;100.00;102345.41;10564773;27;20495;-75
2022/12/03 11:00:35;;;;;;;31.80;15.68;;;;;;;2.04;100.00;102359.88;10583110;27;20047;-76
2022/12/03 11:05:35;;;;;;;39.13;17.90;;;;;;;2.06;100.00;102347.84;10581486;27;20032;-75
2022/12/03 11:10:36;;;;;;;32.55;14.73;;;;;;;2.13;100.00;102337.16;10574307;27;20055;-75
2022/12/03 11:15:42;;;;;;;30.15;14.95;;;;;;;2.10;100.00;102342.94;10539011;28;20020;-75
2022/12/03 11:20:45;;;;;;;33.00;17.17;;;;;;;2.28;100.00;102348.31;10539281;28;20062;-77
2022/12/03 11:25:49;;;;;;;36.10;17.45;;;;;;;2.27;100.00;102331.13;10544010;28;20480;-72
2022/12/03 11:30:52;;;;;;;35.15;16.50;;;;;;;2.35;100.00;102330.31;10539036;28;20040;-69
2022/12/03 11:36:02;;;;;;;36.60;17.95;;;;;;;2.27;100.00;102316.69;10540641;28;20040;-71
2022/12/03 11:41:08;;;;;;;34.13;18.20;;;;;;;2.12;100.00;102309.16;10555060;28;20095;-74
2022/12/03 11:46:09;;;;;;;32.40;16.48;;;;;;;2.04;100.00;102292.81;10555595;28;20032;-73
2022/12/03 11:51:16;;;;;;;32.45;16.00;;;;;;;2.16;100.00;102288.81;10538393;28;20051;-71
2022/12/03 11:56:24;;;;;;;31.83;15.15;;;;;;;2.11;100.00;102266.72;10555359;28;20456;-73
2022/12/03 12:01:35;;;;;;;28.88;16.20;;;;;;;1.90;100.00;102211.97;10555311;28;20036;-73
2022/12/03 12:06:42;;;;;;;34.77;17.50;;;;;;;2.30;100.00;102275.63;10538173;28;20029;-74
2022/12/03 12:11:43;;;;;;;30.98;16.35;;;;;;;2.24;100.00;102262.69;10553621;28;20594;-73
2022/12/03 12:16:48;;;;;;;32.80;15.18;;;;;;;2.12;100.00;102243.94;10588106;27;20024;-76
2022/12/03 12:21:49;;;;;;;30.73;14.97;;;;;;;2.43;100.00;102259.66;10588327;27;20043;-71
2022/12/03 12:26:50;;;;;;;28.88;16.17;;;;;;;2.49;100.00;102242.69;10588671;27;20055;-73
2022/12/03 12:31:52;;;;;;;30.00;14.97;;;;;;;2.54;100.00;102232.19;10588364;27;20035;-72
2022/12/03 12:36:54;;;;;;;32.70;16.23;;;;;;;2.54;100.00;102248.50;10586992;27;20040;-70
2022/12/03 12:41:55;;;;;;;32.70;16.50;;;;;;;2.52;100.00;102230.63;10586130;27;20043;-70
2022/12/03 12:46:55;;;;;;;32.38;16.30;;;;;;;2.36;100.00;102213.28;10586874;28;20038;-70
2022/12/03 12:51:56;;;;;;;31.37;14.87;;;;;;;2.40;100.00;102228.25;10586884;27;20502;-70
2022/12/03 12:56:56;;;;;;;34.47;16.30;;;;;;;2.34;100.00;102228.91;10587327;27;20031;-71
2022/12/03 13:01:57;;;;;;;29.40;14.47;;;;;;;2.16;100.00;102218.16;10586712;27;20509;-72
2022/12/03 13:06:57;;;;;;;30.48;15.68;;;;;;;2.16;100.00;102211.88;10587190;27;20039;-72
2022/12/03 13:11:59;;;;;;;31.52;16.92;;;;;;;2.08;100.00;102209.13;10577061;27;20039;-73
2022/12/03 13:17:00;;;;;;;29.05;15.32;;;;;;;1.87;100.00;102204.16;10585459;28;20484;-71
2022/12/03 13:22:02;;;;;;;34.92;16.10;;;;;;;1.96;100.00;102223.03;10585251;27;20065;-69
2022/12/03 13:27:17;;;;;;;32.05;15.10;;;;;;;1.78;100.00;102212.25;10585742;27;20040;-69
2022/12/03 13:32:22;;;;;;;36.47;17.77;;;;;;;1.41;100.00;102180.88;10586437;27;20039;-70
2022/12/03 13:37:24;;;;;;;32.50;15.77;;;;;;;1.54;100.00;102210.28;10572604;27;20032;-71
2022/12/03 13:42:44;;;;;;;31.60;15.80;;;;;;;1.53;100.00;102216.75;10582152;27;20036;-70
2022/12/03 13:47:58;;;;;;;29.30;16.07;;;;;;;1.44;100.00;102211.41;10584269;28;20036;-73
2022/12/03 13:53:02;;;;;;;36.08;16.17;;;;;;;1.22;100.00;102175.69;10584466;27;20418;-70
2022/12/03 13:58:02;;;;;;;32.37;16.70;;;;;;;1.35;100.00;102224.09;10567656;27;20059;-70
2022/12/03 14:03:03;;;;;;;30.63;16.50;;;;;;;1.24;100.00;102218.91;10584965;27;20036;-70
2022/12/03 14:08:04;;;;;;;30.50;16.40;;;;;;;1.20;100.00;102213.81;10585221;27;20039;-75
2022/12/03 14:13:05;;;;;;;32.60;16.37;;;;;;;1.25;100.00;102224.19;10584587;27;20035;-71
2022/12/03 14:18:05;;;;;;;29.67;15.02;;;;;;;1.25;100.00;102228.78;10585908;27;20047;-71
2022/12/03 14:23:06;;;;;;;27.83;13.33;;;;;;;1.16;100.00;102220.59;10566830;28;20446;-73
2022/12/03 14:28:07;;;;;;;30.50;14.77;;;;;;;1.08;100.00;102216.97;10585368;27;20579;-72
2022/12/03 14:33:07;;;;;;;33.77;15.37;;;;;;;0.90;100.00;102208.88;10583767;27;20031;-72
2022/12/03 14:38:08;;;;;;;29.45;16.88;;;;;;;0.82;100.00;102215.06;10583474;28;20036;-81
2022/12/03 14:43:09;;;;;;;29.45;15.70;;;;;;;0.72;100.00;102207.00;10605482;27;20038;-71
2022/12/03 14:48:09;;;;;;;29.13;14.00;;;;;;;0.60;100.00;102217.25;10625350;27;20039;-71
2022/12/03 14:53:10;;;;;;;30.47;15.07;;;;;;;0.53;100.00;102204.47;10625636;27;20074;-72
2022/12/03 14:58:10;;;;;;;32.13;15.60;;;;;;;0.36;100.00;102174.53;10626698;27;20585;-71
2022/12/03 15:03:11;;;;;;;34.10;15.48;;;;;;;0.44;100.00;102202.72;10607360;27;20453;-71
2022/12/03 15:08:11;;;;;;;33.30;16.13;;;;;;;0.36;100.00;102198.06;10582624;27;20498;-72
2022/12/03 15:13:12;;;;;;;28.07;14.53;;;;;;;0.38;100.00;102198.75;10570837;27;20042;-72
2022/12/03 15:18:12;;;;;;;33.27;16.43;;;;;;;0.36;100.00;102198.06;10561212;28;20062;-70
2022/12/03 15:23:13;;;;;;;31.20;15.20;;;;;;;0.33;100.00;102198.34;10561507;27;20054;-71
2022/12/03 15:28:13;;;;;;;32.77;16.80;;;;;;;0.33;100.00;102204.66;10560272;27;20100;-72
2022/12/03 15:33:14;;;;;;;38.43;15.53;;;;;;;0.33;100.00;102184.81;10559013;28;20036;-72
2022/12/03 15:38:14;;;;;;;35.00;16.83;;;;;;;0.49;100.00;102198.50;10563306;28;20048;-68
2022/12/03 15:43:15;;;;;;;38.93;16.40;;;;;;;0.51;100.00;102188.38;10565611;28;20039;-72
2022/12/03 15:48:15;;;;;;;37.60;17.47;;;;;;;0.51;100.00;102188.38;10555681;28;20100;-72
2022/12/03 15:53:15;;;;;;;31.87;15.77;;;;;;;0.38;100.00;102177.09;10557535;28;20040;-71
2022/12/03 15:58:16;;;;;;;37.37;17.33;;;;;;;0.30;100.00;102179.72;10558308;28;20541;-72
2022/12/03 16:03:16;;;;;;;39.87;19.50;;;;;;;0.13;100.00;102176.84;10538642;27;20147;-70
2022/12/03 16:08:17;;;;;;;37.20;17.13;;;;;;;-0.01;100.00;102185.50;10615505;27;20432;-72
2022/12/03 16:13:17;;;;;;;39.33;17.77;;;;;;;-0.13;100.00;102175.88;10597032;27;20127;-72
2022/12/03 16:18:18;;;;;;;33.03;16.77;;;;;;;-0.01;100.00;102196.31;10578817;28;20043;-72
2022/12/03 16:23:18;;;;;;;38.43;17.50;;;;;;;0.09;100.00;102194.41;10593482;27;20039;-69
2022/12/03 16:28:19;;;;;;;31.43;16.47;;;;;;;0.14;100.00;102181.25;10581275;27;20100;-72
2022/12/03 16:33:19;;;;;;;35.33;15.70;;;;;;;0.30;100.00;102187.84;10578514;28;20032;-72
2022/12/03 16:38:20;;;;;;;42.47;19.10;;;;;;;0.37;100.00;102184.38;10557248;27;20032;-72
2022/12/03 16:43:20;;;;;;;44.57;18.80;;;;;;;0.31;100.00;102167.88;10582591;27;20032;-72
2022/12/03 16:48:21;;;;;;;40.07;18.97;;;;;;;0.45;100.00;102178.16;10580571;28;20027;-72
2022/12/03 16:53:21;;;;;;;35.42;16.95;;;;;;;0.46;100.00;102163.63;10580728;28;20040;-71
2022/12/03 16:58:22;;;;;;;35.27;16.80;;;;;;;0.47;100.00;102157.19;10581150;27;20032;-72
2022/12/03 17:03:22;;;;;;;38.20;19.03;;;;;;;0.53;100.00;102161.97;10568675;27;20062;-72
2022/12/03 17:08:23;;;;;;;36.83;16.97;;;;;;;0.43;100.00;102146.81;10585843;27;20035;-73
2022/12/03 17:13:24;;;;;;;50.47;19.47;;;;;;;0.55;100.00;102159.13;10601570;27;20096;-69
2022/12/03 17:18:24;;;;;;;41.33;17.00;;;;;;;0.54;100.00;102155.56;10600204;27;20051;-72
2022/12/03 17:23:24;;;;;;;37.10;18.27;;;;;;;0.42;100.00;102135.13;10585325;28;20561;-72
2022/12/03 17:28:25;;;;;;;37.75;17.92;;;;;;;0.49;100.00;102155.16;10606994;27;20043;-71
2022/12/03 17:33:25;;;;;;;37.67;18.77;;;;;;;0.51;100.00;102161.28;10605318;27;20038;-72
2022/12/03 17:38:26;;;;;;;35.37;16.70;;;;;;;0.51;100.00;102163.97;10585360;27;20081;-72
2022/12/03 17:43:26;;;;;;;35.88;17.75;;;;;;;0.47;100.00;102151.75;10591719;27;20027;-73
2022/12/03 17:48:29;;;;;;;42.07;19.17;;;;;;;0.53;100.00;102166.53;10591921;27;20036;-72
2022/12/03 17:53:30;;;;;;;38.13;18.80;;;;;;;0.52;100.00;102164.84;10585872;27;20032;-73
2022/12/03 17:58:30;;;;;;;35.53;17.50;;;;;;;0.53;100.00;102153.84;10566897;27;20028;-72
2022/12/03 18:03:31;;;;;;;40.75;17.75;;;;;;;0.50;100.00;102153.31;10599565;27;20028;-73
2022/12/03 18:08:31;;;;;;;41.60;17.80;;;;;;;0.57;100.00;102163.34;10582774;28;20044;-72
2022/12/03 18:13:32;;;;;;;40.83;18.07;;;;;;;0.56;100.00;102161.66;10583740;27;20031;-71
2022/12/03 18:18:32;;;;;;;35.93;17.17;;;;;;;0.53;100.00;102153.84;10585068;27;20055;-72
2022/12/03 18:23:33;;;;;;;36.50;16.65;;;;;;;0.56;100.00;102161.66;10583455;28;20043;-72
2022/12/03 18:28:34;;;;;;;30.33;14.53;;;;;;;0.58;100.00;102169.66;10582044;27;20035;-73
2022/12/03 18:33:34;;;;;;;39.13;19.53;;;;;;;0.57;100.00;102149.81;10581883;27;20028;-72
2022/12/03 18:38:34;;;;;;;32.83;16.33;;;;;;;0.43;100.00;102136.81;10598334;27;20035;-72
2022/12/03 18:43:35;;;;;;;34.83;16.58;;;;;;;0.58;100.00;102154.25;10565008;27;20054;-72
2022/12/03 18:48:36;;;;;;;37.23;15.93;;;;;;;0.44;100.00;102137.69;10564667;27;20065;-72
2022/12/03 18:53:36;;;;;;;41.40;16.25;;;;;;;0.54;100.00;102152.84;10583610;28;20384;-72
2022/12/03 18:58:37;;;;;;;38.40;18.23;;;;;;;0.50;100.00;102154.16;10591434;27;20039;-71
2022/12/03 19:03:37;;;;;;;37.03;16.47;;;;;;;0.44;100.00;102140.41;10605416;27;20035;-72
2022/12/03 19:08:38;;;;;;;41.33;19.10;;;;;;;0.47;100.00;102143.63;10619185;27;20027;-72
2022/12/03 19:13:39;;;;;;;38.58;17.83;;;;;;;0.40;100.00;102131.72;10621730;27;20035;-73
2022/12/03 19:18:39;;;;;;;36.42;17.02;;;;;;;0.44;100.00;102135.81;10584909;27;20035;-72
2022/12/03 19:23:40;;;;;;;37.97;15.65;;;;;;;0.41;100.00;102136.13;10606383;27;20063;-72
2022/12/03 19:28:40;;;;;;;38.90;16.83;;;;;;;0.33;100.00;102119.78;10591047;27;20039;-72
2022/12/03 19:33:41;;;;;;;34.57;17.33;;;;;;;0.37;100.00;102132.03;10544132;28;20111;-72
2022/12/03 19:38:42;;;;;;;36.40;17.23;;;;;;;0.40;100.00;102124.44;10546539;28;20031;-72
2022/12/03 19:43:47;;;;;;;36.53;18.87;;;;;;;0.35;100.00;102106.94;10594356;27;20061;-72
2022/12/03 19:48:47;;;;;;;40.73;18.67;;;;;;;0.42;100.00;102127.00;10563009;28;20032;-72
2022/12/03 19:53:48;;;;;;;38.70;18.58;;;;;;;0.36;100.00;102124.91;10579940;28;20040;-72
2022/12/03 19:58:52;;;;;;;37.15;17.52;;;;;;;0.43;100.00;102141.41;10579205;28;20036;-72
2022/12/03 20:03:54;;;;;;;40.05;17.65;;;;;;;0.43;100.00;102131.41;10561352;28;20040;-72
2022/12/03 20:08:58;;;;;;;36.23;17.00;;;;;;;0.35;100.00;102121.38;10555131;28;20032;-72
2022/12/03 20:14:01;;;;;;;33.63;16.10;;;;;;;0.14;100.00;102102.72;10545645;28;20032;-72
2022/12/03 20:19:04;;;;;;;36.07;17.20;;;;;;;0.25;100.00;102127.84;10597310;27;20047;-73
2022/12/03 20:24:05;;;;;;;36.10;15.93;;;;;;;0.15;100.00;102112.53;10570111;27;20031;-72
2022/12/03 20:29:05;;;;;;;32.83;17.17;;;;;;;0.20;100.00;102112.06;10599995;27;20061;-72
2022/12/03 20:34:06;;;;;;;35.27;16.73;;;;;;;-0.03;100.00;102098.16;10586069;27;20035;-74
2022/12/03 20:39:07;;;;;;;37.37;18.07;;;;;;;0.14;100.00;102116.25;10610223;27;20035;-72
2022/12/03 20:44:08;;;;;;;32.95;16.58;;;;;;;0.05;100.00;102113.63;10608880;27;20517;-72
2022/12/03 20:49:09;;;;;;;38.73;17.77;;;;;;;-0.06;100.00;102103.91;10590073;27;20035;-72
2022/12/03 20:54:09;;;;;;;35.70;16.50;;;;;;;-0.06;100.00;102126.41;10595726;27;20071;-73
2022/12/03 20:59:12;;;;;;;41.13;18.23;;;;;;;-0.10;100.00;102127.72;10624361;27;20058;-72
2022/12/03 21:04:12;;;;;;;40.47;19.10;;;;;;;-0.16;100.00;102130.19;10623197;27;20070;-73
2022/12/03 21:09:13;;;;;;;35.17;17.87;;;;;;;-0.12;100.00;102139.69;10606066;27;20519;-71
2022/12/03 21:14:13;;;;;;;42.58;19.80;;;;;;;-0.10;100.00;102130.41;10600357;27;20043;-72
2022/12/03 21:19:19;;;;;;;35.90;17.03;;;;;;;-0.08;100.00;102128.41;10620617;27;20068;-73
2022/12/03 21:24:19;;;;;;;35.70;17.37;;;;;;;-0.04;100.00;102123.53;10621668;27;20482;-72
2022/12/03 21:29:21;;;;;;;42.30;18.10;;;;;;;-0.05;100.00;102119.13;10586475;27;20066;-72
2022/12/03 21:34:22;;;;;;;50.73;20.03;;;;;;;-0.01;100.00;102125.94;10584308;27;20099;-72
2022/12/03 21:39:22;;;;;;;41.40;17.57;;;;;;;-0.06;100.00;102103.91;10584575;27;20070;-72
2022/12/03 21:44:23;;;;;;;41.13;17.70;;;;;;;0.00;100.00;102130.34;10567186;27;20032;-72
2022/12/03 21:49:23;;;;;;;44.30;19.77;;;;;;;-0.13;100.00;102103.63;10583833;27;20253;-72
2022/12/03 21:54:23;;;;;;;46.67;17.27;;;;;;;-0.01;100.00;102118.66;10554945;27;20089;-72
2022/12/03 21:59:24;;;;;;;42.37;19.07;;;;;;;0.02;100.00;102116.63;10584663;27;20082;-69
2022/12/03 22:04:24;;;;;;;43.20;18.87;;;;;;;-0.04;100.00;102096.47;10566887;27;20056;-72
2022/12/03 22:09:25;;;;;;;40.07;19.50;;;;;;;0.05;100.00;102122.59;10581570;27;20047;-72
2022/12/03 22:14:26;;;;;;;50.23;21.10;;;;;;;0.07;100.00;102109.75;10583241;28;20028;-72
2022/12/03 22:19:27;;;;;;;35.90;18.07;;;;;;;-0.06;100.00;102077.66;10597370;27;20057;-72
2022/12/03 22:24:27;;;;;;;41.03;17.73;;;;;;;0.13;100.00;102111.00;10567375;27;20032;-72
2022/12/03 22:29:28;;;;;;;44.97;20.67;;;;;;;0.07;100.00;102103.50;10563779;27;20077;-71
2022/12/03 22:34:28;;;;;;;35.97;18.53;;;;;;;-0.01;100.00;102080.75;10581905;27;20052;-72
2022/12/03 22:39:29;;;;;;;41.30;17.77;;;;;;;-0.96;100.00;101916.31;10581977;27;20039;-72
2022/12/03 22:44:29;;;;;;;43.47;19.50;;;;;;;0.10;100.00;102087.78;10583185;27;20039;-72
2022/12/03 22:49:30;;;;;;;34.65;17.40;;;;;;;0.02;100.00;102085.00;10582056;27;20067;-71
2022/12/03 22:54:30;;;;;;;39.47;18.53;;;;;;;0.04;100.00;102082.97;10580934;28;20039;-72
2022/12/03 22:59:31;;;;;;;34.30;16.53;;;;;;;0.07;100.00;102077.28;10580018;27;20039;-72